createdAt,value
2023-04-29T00:03:57.370Z,16.35
2023-04-29T00:08:02.159Z,18.67
2023-04-29T00:12:07.448Z,15.07
2023-04-29T00:16:12.059Z,17.95
2023-04-29T00:20:15.606Z,16.83
2023-04-29T00:24:19.996Z,12.40
2023-04-29T00:28:24.268Z,16.83
2023-04-29T00:32:29.618Z,13.75
2023-04-29T00:36:34.134Z,23.63
2023-04-29T00:40:43.706Z,15.35
2023-04-29T00:44:47.029Z,18.73
2023-04-29T00:48:50.936Z,14.13
2023-04-29T00:52:53.984Z,20.42
2023-04-29T00:56:59.732Z,18.45
2023-04-29T01:01:03.969Z,18.10
2023-04-29T01:05:11.559Z,17.23
2023-04-29T01:09:35.214Z,12.98
2023-04-29T01:13:46.222Z,17.77
2023-04-29T01:17:55.891Z,18.35
2023-04-29T01:22:03.681Z,17.50
2023-04-29T01:26:11.434Z,20.92
2023-04-29T01:30:26.944Z,23.35
2023-04-29T01:34:40.708Z,25.58
2023-04-29T01:38:50.474Z,25.70
2023-04-29T01:43:03.349Z,30.45
2023-04-29T01:47:07.391Z,28.90
2023-04-29T01:51:13.599Z,28.92
2023-04-29T01:55:16.696Z,28.83
2023-04-29T01:59:21.302Z,43.15
2023-04-29T02:03:24.568Z,32.25
2023-04-29T02:07:29.938Z,27.27
2023-04-29T02:11:33.116Z,22.10
2023-04-29T02:15:42.659Z,25.58
2023-04-29T02:19:45.765Z,26.58
2023-04-29T02:23:50.525Z,27.55
2023-04-29T02:27:55.222Z,27.23
2023-04-29T02:32:00.197Z,25.50
2023-04-29T02:36:08.211Z,24.75
2023-04-29T02:40:11.823Z,30.52
2023-04-29T02:44:16.121Z,31.60
2023-04-29T02:48:20.647Z,43.28
2023-04-29T02:52:26.445Z,32.90
2023-04-29T02:56:29.544Z,40.55
2023-04-29T03:00:33.177Z,33.35
2023-04-29T03:04:37.581Z,33.45
2023-04-29T03:08:40.594Z,39.65
2023-04-29T03:12:43.623Z,38.42
2023-04-29T03:16:46.701Z,44.83
2023-04-29T03:20:51.389Z,57.80
2023-04-29T03:24:57.262Z,56.05
2023-04-29T03:29:00.533Z,40.90
2023-04-29T03:33:04.326Z,46.45
2023-04-29T03:37:11.140Z,40.83
2023-04-29T03:41:14.253Z,37.10
2023-04-29T03:45:18.987Z,46.63
2023-04-29T03:49:23.039Z,40.92
2023-04-29T03:53:27.553Z,48.80
2023-04-29T03:57:34.789Z,50.45
2023-04-29T04:01:37.907Z,49.42
2023-04-29T04:05:47.698Z,51.65
2023-04-29T04:09:53.126Z,59.30
2023-04-29T04:13:56.389Z,54.10
2023-04-29T04:18:03.194Z,56.00
2023-04-29T04:22:07.842Z,57.33
2023-04-29T04:26:12.448Z,60.85
2023-04-29T04:30:19.353Z,49.95
2023-04-29T04:34:22.618Z,51.47
2023-04-29T04:38:26.542Z,49.75
2023-04-29T04:42:33.671Z,43.40
2023-04-29T04:46:36.980Z,49.67
2023-04-29T04:50:40.505Z,44.90
2023-04-29T04:54:47.652Z,52.22
2023-04-29T04:58:52.408Z,57.38
2023-04-29T05:02:55.611Z,54.17
2023-04-29T05:06:58.785Z,47.97
2023-04-29T05:11:01.920Z,50.22
2023-04-29T05:15:07.033Z,49.38
2023-04-29T05:19:10.040Z,48.25
2023-04-29T05:23:14.976Z,55.67
2023-04-29T05:27:22.100Z,48.72
2023-04-29T05:31:29.717Z,47.10
2023-04-29T05:35:33.834Z,39.13
2023-04-29T05:39:36.797Z,49.22
2023-04-29T05:43:41.834Z,45.75
2023-04-29T05:47:46.624Z,47.35
2023-04-29T05:51:52.499Z,41.65
2023-04-29T05:55:55.544Z,41.75
2023-04-29T06:00:01.720Z,42.97
2023-04-29T06:04:09.405Z,36.90
2023-04-29T06:08:12.609Z,32.50
2023-04-29T06:12:16.066Z,39.03
2023-04-29T06:16:28.028Z,35.13
2023-04-29T06:20:34.440Z,36.03
2023-04-29T06:24:40.309Z,27.20
2023-04-29T06:28:43.383Z,32.67
2023-04-29T06:32:46.741Z,30.73
2023-04-29T06:36:51.505Z,21.10
2023-04-29T06:40:57.890Z,16.85
2023-04-29T06:45:01.078Z,18.42
2023-04-29T06:49:04.114Z,14.32
2023-04-29T06:53:16.575Z,13.88
2023-04-29T06:57:20.820Z,9.80
2023-04-29T07:01:23.893Z,7.53
2023-04-29T07:05:31.374Z,10.82
2023-04-29T07:09:40.551Z,9.25
2023-04-29T07:13:46.758Z,8.70
2023-04-29T07:17:49.879Z,6.68
2023-04-29T07:21:52.862Z,6.22
2023-04-29T07:25:57.627Z,8.80
2023-04-29T07:30:06.139Z,5.22
2023-04-29T07:34:11.040Z,6.30
2023-04-29T07:38:14.091Z,6.00
2023-04-29T07:42:21.524Z,5.10
2023-04-29T07:46:28.546Z,5.57
2023-04-29T07:50:31.665Z,6.88
2023-04-29T07:54:34.716Z,5.28
2023-04-29T07:58:40.279Z,8.75
2023-04-29T08:02:48.408Z,4.93
2023-04-29T08:06:52.110Z,5.18
2023-04-29T08:10:57.954Z,4.30
2023-04-29T08:15:02.502Z,3.88
2023-04-29T08:19:05.513Z,3.58
2023-04-29T08:23:10.628Z,5.13
2023-04-29T08:27:18.763Z,3.47
2023-04-29T08:31:25.397Z,3.78
2023-04-29T08:35:37.852Z,4.03
2023-04-29T08:39:40.955Z,4.60
2023-04-29T08:43:47.166Z,4.53
2023-04-29T08:47:52.566Z,5.57
2023-04-29T08:51:55.741Z,6.00
2023-04-29T08:56:05.032Z,5.30
2023-04-29T09:00:10.606Z,5.43
2023-04-29T09:04:25.433Z,9.63
2023-04-29T09:08:29.153Z,8.68
2023-04-29T09:12:36.176Z,6.13
2023-04-29T09:16:42.056Z,5.72
2023-04-29T09:20:48.385Z,4.53
2023-04-29T09:24:51.787Z,4.57
2023-04-29T09:29:09.493Z,4.63
2023-04-29T09:33:14.169Z,4.60
2023-04-29T09:37:28.277Z,4.53
2023-04-29T09:41:33.186Z,4.80
2023-04-29T09:45:36.901Z,4.57
2023-04-29T09:49:42.548Z,7.15
2023-04-29T09:53:47.116Z,5.20
2023-04-29T09:57:55.716Z,7.05
2023-04-29T10:01:59.820Z,5.55
2023-04-29T10:06:04.853Z,7.05
2023-04-29T10:10:12.678Z,9.77
2023-04-29T10:14:20.428Z,8.95
2023-04-29T10:18:33.780Z,7.95
2023-04-29T10:22:49.130Z,7.78
2023-04-29T10:26:56.506Z,9.98
2023-04-29T10:31:05.246Z,9.52
2023-04-29T10:35:10.344Z,9.30
2023-04-29T10:39:23.128Z,9.63
2023-04-29T10:43:31.029Z,7.70
2023-04-29T10:47:36.033Z,6.97
2023-04-29T10:51:47.175Z,7.50
2023-04-29T10:55:56.053Z,6.75
2023-04-29T11:00:00.684Z,6.60
2023-04-29T11:04:07.866Z,5.47
2023-04-29T11:08:14.017Z,6.05
2023-04-29T11:12:21.858Z,6.35
2023-04-29T11:16:29.386Z,6.95
2023-04-29T11:20:32.883Z,5.85
2023-04-29T11:24:36.647Z,5.18
2023-04-29T11:28:43.208Z,5.03
2023-04-29T11:32:54.531Z,6.28
2023-04-29T11:37:00.134Z,5.57
2023-04-29T11:41:03.277Z,7.38
2023-04-29T11:45:13.053Z,4.38
2023-04-29T11:49:23.024Z,6.47
2023-04-29T11:53:30.282Z,5.13
2023-04-29T11:57:35.358Z,6.25
2023-04-29T12:01:39.573Z,5.07
2023-04-29T12:05:53.037Z,6.38
2023-04-29T12:10:00.327Z,5.10
2023-04-29T12:14:06.248Z,4.82
2023-04-29T12:18:09.972Z,4.97
2023-04-29T12:22:14.670Z,4.93
2023-04-29T12:26:21.241Z,6.28
2023-04-29T12:30:27.515Z,4.90
2023-04-29T12:34:34.958Z,3.90
2023-04-29T12:38:54.756Z,5.97
2023-04-29T12:43:02.051Z,4.22
2023-04-29T12:47:09.986Z,4.55
2023-04-29T12:51:14.561Z,5.25
2023-04-29T12:55:19.416Z,4.85
2023-04-29T12:59:22.572Z,4.45
2023-04-29T13:03:28.032Z,4.78
2023-04-29T13:07:38.228Z,6.93
2023-04-29T13:11:45.892Z,5.20
2023-04-29T13:15:51.575Z,7.65
2023-04-29T13:19:54.780Z,5.05
2023-04-29T13:23:57.754Z,4.70
2023-04-29T13:28:02.327Z,4.57
2023-04-29T13:32:09.402Z,5.07
2023-04-29T13:36:12.770Z,5.68
2023-04-29T13:40:21.009Z,5.10
2023-04-29T13:44:47.044Z,5.80
2023-04-29T13:53:40.983Z,8.20
2023-04-29T14:05:51.735Z,6.75
2023-04-29T14:09:55.863Z,4.55
2023-04-29T14:13:58.993Z,6.25
2023-04-29T14:18:03.637Z,6.53
2023-04-29T14:22:06.655Z,3.72
2023-04-29T14:26:27.249Z,4.18
2023-04-29T14:30:31.352Z,8.70
2023-04-29T14:34:35.725Z,6.22
2023-04-29T14:38:40.343Z,4.97
2023-04-29T14:42:49.202Z,8.45
2023-04-29T14:46:55.184Z,4.35
2023-04-29T14:50:59.593Z,3.72
2023-04-29T14:55:03.959Z,3.63
2023-04-29T14:59:08.947Z,4.65
2023-04-29T15:03:20.147Z,4.15
2023-04-29T15:07:26.938Z,2.95
2023-04-29T15:11:30.172Z,3.05
2023-04-29T15:15:33.256Z,3.10
2023-04-29T15:19:36.710Z,3.58
2023-04-29T15:23:41.293Z,7.05
2023-04-29T15:27:47.394Z,3.28
2023-04-29T15:31:52.475Z,3.90
2023-04-29T15:36:02.547Z,4.00
2023-04-29T15:40:11.307Z,3.90
2023-04-29T15:44:14.328Z,3.50
2023-04-29T15:48:22.213Z,3.30
2023-04-29T15:52:25.475Z,3.42
2023-04-29T15:56:31.184Z,4.00
2023-04-29T16:00:34.300Z,3.35
2023-04-29T16:04:39.575Z,4.03
2023-04-29T16:08:46.268Z,9.80
2023-04-29T16:12:51.128Z,6.20
2023-04-29T16:16:55.338Z,3.22
2023-04-29T16:20:58.596Z,2.78
2023-04-29T16:25:02.511Z,5.10
2023-04-29T16:29:09.978Z,3.17
2023-04-29T16:33:17.988Z,4.43
2023-04-29T16:37:24.950Z,3.15
2023-04-29T16:41:33.661Z,3.22
2023-04-29T16:45:43.087Z,4.03
2023-04-29T16:49:50.678Z,4.97
2023-04-29T16:53:55.314Z,3.22
2023-04-29T16:57:59.687Z,2.88
2023-04-29T17:02:07.854Z,5.65
2023-04-29T17:06:12.290Z,4.53
2023-04-29T17:10:15.349Z,4.28
2023-04-29T17:14:18.440Z,3.45
2023-04-29T17:18:26.262Z,5.25
2023-04-29T17:22:30.948Z,4.57
2023-04-29T17:26:34.020Z,4.45
2023-04-29T17:30:39.252Z,4.25
2023-04-29T17:34:47.474Z,112.22
2023-04-29T17:38:52.107Z,7.25
2023-04-29T17:42:58.141Z,4.97
2023-04-29T17:47:04.283Z,5.03
2023-04-29T17:51:08.776Z,10.23
2023-04-29T17:55:11.901Z,7.57
2023-04-29T17:59:17.371Z,4.38
2023-04-29T18:03:20.736Z,33.75
2023-04-29T18:07:25.333Z,34.80
2023-04-29T18:11:28.439Z,51.63
2023-04-29T18:15:31.500Z,6.80
2023-04-29T18:19:34.824Z,4.47
2023-04-29T18:23:41.257Z,5.95
2023-04-29T18:27:46.386Z,13.18
2023-04-29T18:31:49.597Z,5.63
2023-04-29T18:36:00.628Z,6.43
2023-04-29T18:40:10.979Z,7.47
2023-04-29T18:44:14.457Z,5.60
2023-04-29T18:48:21.406Z,5.80
2023-04-29T18:52:27.839Z,5.22
2023-04-29T18:56:33.886Z,6.65
2023-04-29T19:00:37.093Z,4.63
2023-04-29T19:04:42.066Z,11.48
2023-04-29T19:08:45.482Z,5.28
2023-04-29T19:12:50.085Z,3.55
2023-04-29T19:16:55.159Z,3.05
2023-04-29T19:20:58.654Z,3.08
2023-04-29T19:25:01.900Z,6.22
2023-04-29T19:29:07.326Z,4.25
2023-04-29T19:33:20.817Z,2.10
2023-04-29T19:37:23.951Z,2.15
2023-04-29T19:41:28.506Z,2.00
2023-04-29T19:45:35.856Z,3.88
2023-04-29T19:49:39.299Z,2.30
2023-04-29T19:53:42.910Z,4.10
2023-04-29T19:57:46.263Z,2.72
2023-04-29T20:01:52.531Z,4.35
2023-04-29T20:05:57.185Z,2.97
2023-04-29T20:10:00.482Z,4.35
2023-04-29T20:14:03.814Z,7.72
2023-04-29T20:18:10.304Z,7.63
2023-04-29T20:22:13.698Z,9.35
2023-04-29T20:26:17.880Z,9.75
2023-04-29T20:30:23.183Z,12.80
2023-04-29T20:34:27.914Z,10.93
2023-04-29T20:38:37.322Z,10.23
2023-04-29T20:42:43.411Z,8.52
2023-04-29T20:46:47.666Z,13.02
2023-04-29T20:50:52.215Z,9.48
2023-04-29T20:54:55.292Z,10.50
2023-04-29T20:59:00.570Z,16.60
2023-04-29T21:03:03.883Z,10.13
2023-04-29T21:07:12.120Z,10.38
2023-04-29T21:11:19.293Z,10.77
2023-04-29T21:15:22.412Z,17.08
2023-04-29T21:19:25.719Z,10.93
2023-04-29T21:23:31.213Z,13.73
2023-04-29T21:27:35.825Z,14.02
2023-04-29T21:31:43.075Z,11.52
2023-04-29T21:35:52.284Z,12.55
2023-04-29T21:40:00.475Z,12.65
2023-04-29T21:44:04.448Z,9.27
2023-04-29T21:48:15.278Z,12.70
2023-04-29T21:52:23.061Z,10.50
2023-04-29T21:56:27.460Z,11.80
2023-04-29T22:00:33.429Z,9.63
2023-04-29T22:04:36.911Z,10.57
2023-04-29T22:08:39.933Z,10.57
2023-04-29T22:12:44.339Z,9.10
2023-04-29T22:16:50.230Z,8.43
2023-04-29T22:20:53.738Z,11.45
2023-04-29T22:24:56.985Z,9.98
2023-04-29T22:29:01.479Z,16.70
2023-04-29T22:33:04.821Z,8.23
2023-04-29T22:37:13.168Z,10.82
2023-04-29T22:41:18.372Z,11.23
2023-04-29T22:45:22.892Z,10.95
2023-04-29T22:49:27.515Z,9.93
2023-04-29T22:53:30.561Z,9.55
2023-04-29T22:57:37.270Z,8.75
2023-04-29T23:01:44.227Z,7.55
2023-04-29T23:05:48.462Z,6.90
2023-04-29T23:09:52.403Z,10.60
2023-04-29T23:13:58.054Z,8.35
2023-04-29T23:18:02.840Z,7.55
2023-04-29T23:22:07.382Z,8.50
2023-04-29T23:26:10.404Z,7.25
2023-04-29T23:30:13.640Z,8.52
2023-04-29T23:34:18.479Z,8.05
2023-04-29T23:38:24.473Z,9.27
2023-04-29T23:42:27.884Z,12.57
2023-04-29T23:46:32.838Z,8.40
2023-04-29T23:50:41.969Z,9.95
2023-04-29T23:54:50.562Z,7.30
2023-04-29T23:58:56.303Z,9.30
